createdAt,value
2022-08-19T00:01:53.257Z,11.60
2022-08-19T00:04:23.603Z,13.35
2022-08-19T00:06:50.426Z,13.00
2022-08-19T00:09:19.795Z,12.88
2022-08-19T00:11:47.721Z,11.80
2022-08-19T00:14:17.727Z,11.20
2022-08-19T00:16:48.562Z,11.75
2022-08-19T00:21:44.228Z,12.25
2022-08-19T00:24:13.562Z,12.95
2022-08-19T00:26:41.226Z,12.63
2022-08-19T00:29:10.237Z,12.38
2022-08-19T00:31:37.081Z,11.98
2022-08-19T00:34:04.353Z,12.35
2022-08-19T00:36:32.734Z,12.55
2022-08-19T00:39:00.227Z,11.65
2022-08-19T00:41:27.881Z,12.25
2022-08-19T00:44:06.766Z,12.52
2022-08-19T00:46:39.241Z,11.93
2022-08-19T00:49:23.133Z,11.90
2022-08-19T00:51:56.427Z,12.30
2022-08-19T00:54:30.997Z,12.30
2022-08-19T00:57:01.050Z,13.43
2022-08-19T01:00:00.566Z,12.63
2022-08-19T01:02:17.619Z,11.85
2022-08-19T01:04:44.399Z,12.20
2022-08-19T01:07:15.061Z,13.32
2022-08-19T01:09:44.317Z,12.50
2022-08-19T01:12:11.177Z,12.38
2022-08-19T01:14:40.593Z,12.32
2022-08-19T01:17:10.997Z,12.50
2022-08-19T01:19:43.971Z,12.90
2022-08-19T01:22:33.881Z,13.13
2022-08-19T01:25:01.730Z,14.77
2022-08-19T01:27:43.775Z,13.77
2022-08-19T01:30:13.769Z,14.27
2022-08-19T01:32:40.773Z,14.97
2022-08-19T01:35:07.971Z,14.75
2022-08-19T01:37:50.415Z,14.55
2022-08-19T01:40:17.898Z,14.27
2022-08-19T01:42:44.739Z,13.88
2022-08-19T01:45:11.729Z,15.50
2022-08-19T01:47:39.016Z,14.80
2022-08-19T01:50:08.831Z,14.13
2022-08-19T01:52:40.312Z,14.70
2022-08-19T01:55:11.150Z,15.18
2022-08-19T01:57:40.129Z,14.52
2022-08-19T02:00:12.055Z,15.35
2022-08-19T02:02:39.383Z,15.82
2022-08-19T02:05:08.461Z,14.85
2022-08-19T02:07:38.493Z,15.55
2022-08-19T02:10:12.452Z,15.80
2022-08-19T02:12:40.498Z,15.90
2022-08-19T02:15:08.490Z,16.45
2022-08-19T02:17:35.769Z,15.98
2022-08-19T02:20:02.803Z,16.30
2022-08-19T02:22:29.635Z,16.05
2022-08-19T02:24:56.747Z,16.17
2022-08-19T02:27:24.456Z,15.75
2022-08-19T02:29:52.284Z,16.73
2022-08-19T02:32:20.845Z,16.23
2022-08-19T02:34:48.675Z,16.65
2022-08-19T02:43:33.753Z,17.95
2022-08-19T02:46:02.497Z,17.48
2022-08-19T02:48:29.306Z,17.85
2022-08-19T02:50:56.449Z,18.38
2022-08-19T02:53:25.423Z,18.20
2022-08-19T02:55:53.081Z,16.63
2022-08-19T02:58:20.905Z,16.70
2022-08-19T03:00:51.253Z,16.73
2022-08-19T03:03:19.705Z,18.52
2022-08-19T03:05:55.870Z,18.23
2022-08-19T03:08:23.123Z,17.13
2022-08-19T03:10:49.876Z,16.88
2022-08-19T03:13:18.879Z,17.40
2022-08-19T03:15:48.990Z,17.27
2022-08-19T03:18:17.986Z,16.67
2022-08-19T03:20:51.001Z,16.08
2022-08-19T03:23:18.519Z,16.85
2022-08-19T03:25:58.116Z,16.55
2022-08-19T03:28:30.342Z,16.38
2022-08-19T03:31:04.083Z,17.58
2022-08-19T03:33:33.452Z,17.05
2022-08-19T03:36:08.806Z,17.40
2022-08-19T03:38:38.581Z,16.15
2022-08-19T03:41:11.501Z,16.40
2022-08-19T03:43:40.306Z,17.05
2022-08-19T03:46:13.831Z,16.23
2022-08-19T03:48:42.946Z,15.43
2022-08-19T03:51:30.869Z,17.23
2022-08-19T03:54:00.157Z,16.38
2022-08-19T03:56:28.832Z,15.88
2022-08-19T03:58:57.694Z,16.40
2022-08-19T04:01:34.766Z,16.23
2022-08-19T04:04:03.427Z,16.85
2022-08-19T04:06:33.994Z,17.02
2022-08-19T04:09:02.670Z,15.88
2022-08-19T04:11:43.389Z,17.42
2022-08-19T04:14:18.842Z,17.75
2022-08-19T04:16:47.276Z,17.25
2022-08-19T04:19:15.589Z,19.23
2022-08-19T04:21:46.073Z,18.67
2022-08-19T04:24:14.516Z,18.65
2022-08-19T04:26:42.488Z,17.80
2022-08-19T04:29:13.218Z,18.77
2022-08-19T04:34:11.828Z,17.92
2022-08-19T04:36:42.371Z,17.40
2022-08-19T04:39:18.411Z,17.00
2022-08-19T04:42:04.253Z,16.67
2022-08-19T04:44:33.497Z,17.88
2022-08-19T04:47:10.996Z,17.55
2022-08-19T04:49:38.650Z,18.25
2022-08-19T04:52:05.509Z,18.17
2022-08-19T04:54:37.413Z,17.17
2022-08-19T04:57:08.416Z,17.42
2022-08-19T04:59:36.364Z,18.83
2022-08-19T05:02:04.470Z,17.90
2022-08-19T05:04:32.803Z,19.67
2022-08-19T05:07:01.933Z,18.02
2022-08-19T05:09:42.162Z,17.55
2022-08-19T05:12:18.250Z,19.02
2022-08-19T05:14:48.307Z,20.13
2022-08-19T05:17:27.588Z,19.83
2022-08-19T05:20:14.555Z,19.00
2022-08-19T05:22:43.105Z,18.10
2022-08-19T05:25:14.222Z,18.75
2022-08-19T05:27:42.468Z,18.30
2022-08-19T05:30:10.901Z,20.50
2022-08-19T05:32:38.151Z,19.02
2022-08-19T05:35:06.307Z,24.65
2022-08-19T05:37:33.589Z,20.27
2022-08-19T05:40:00.517Z,20.83
2022-08-19T05:42:27.603Z,20.65
2022-08-19T05:44:54.946Z,19.98
2022-08-19T05:47:22.201Z,19.17
2022-08-19T05:49:50.863Z,21.48
2022-08-19T05:52:19.346Z,21.35
2022-08-19T05:54:51.330Z,20.92
2022-08-19T05:57:19.594Z,21.17
2022-08-19T05:59:50.180Z,22.30
2022-08-19T06:02:20.361Z,24.55
2022-08-19T06:04:47.429Z,24.23
2022-08-19T06:07:14.269Z,24.15
2022-08-19T06:09:43.786Z,24.63
2022-08-19T06:12:29.781Z,22.42
2022-08-19T06:15:01.538Z,22.65
2022-08-19T06:17:31.600Z,23.30
2022-08-19T06:19:59.532Z,23.77
2022-08-19T06:22:26.908Z,22.55
2022-08-19T06:24:54.872Z,25.98
2022-08-19T06:27:22.740Z,23.77
2022-08-19T06:29:49.830Z,23.85
2022-08-19T06:32:19.287Z,25.23
2022-08-19T06:34:46.572Z,24.85
2022-08-19T06:37:13.624Z,24.30
2022-08-19T06:39:42.973Z,24.38
2022-08-19T06:42:12.566Z,23.90
2022-08-19T06:44:43.015Z,25.03
2022-08-19T06:47:14.825Z,23.30
2022-08-19T06:49:43.100Z,22.98
2022-08-19T06:52:15.402Z,21.52
2022-08-19T06:57:25.229Z,23.08
2022-08-19T06:59:52.675Z,23.88
2022-08-19T07:02:21.355Z,23.35
2022-08-19T07:04:48.433Z,21.77
2022-08-19T07:07:21.813Z,23.95
2022-08-19T07:09:57.926Z,22.73
2022-08-19T07:12:30.817Z,23.83
2022-08-19T07:14:59.018Z,24.65
2022-08-19T07:17:27.018Z,24.63
2022-08-19T07:19:54.835Z,22.55
2022-08-19T07:22:24.137Z,22.48
2022-08-19T07:24:52.452Z,23.67
2022-08-19T07:27:24.212Z,24.08
2022-08-19T07:29:55.978Z,22.50
2022-08-19T07:32:27.409Z,23.02
2022-08-19T07:34:54.703Z,22.63
2022-08-19T07:37:21.901Z,22.02
2022-08-19T07:39:49.019Z,19.75
2022-08-19T07:42:15.853Z,21.25
2022-08-19T07:44:50.009Z,26.08
2022-08-19T07:47:58.759Z,22.77
2022-08-19T07:50:08.500Z,22.40
2022-08-19T07:52:36.896Z,20.40
2022-08-19T07:55:05.518Z,19.63
2022-08-19T07:57:32.559Z,21.52
2022-08-19T07:59:59.804Z,20.80
2022-08-19T08:02:26.607Z,21.40
2022-08-19T08:05:12.201Z,21.45
2022-08-19T08:07:58.868Z,21.05
2022-08-19T08:10:26.597Z,21.60
2022-08-19T08:13:08.813Z,24.13
2022-08-19T08:15:42.732Z,25.38
2022-08-19T08:18:11.652Z,24.30
2022-08-19T08:20:38.888Z,25.75
2022-08-19T08:23:25.999Z,25.67
2022-08-19T08:25:55.696Z,23.92
2022-08-19T08:28:23.339Z,24.23
2022-08-19T08:30:51.211Z,24.48
2022-08-19T08:33:33.070Z,25.85
2022-08-19T08:36:03.870Z,25.50
2022-08-19T08:38:38.771Z,28.33
2022-08-19T08:41:27.017Z,26.17
2022-08-19T08:43:55.175Z,27.60
2022-08-19T08:46:46.829Z,28.73
2022-08-19T08:49:32.279Z,28.67
2022-08-19T08:52:07.208Z,29.15
2022-08-19T08:54:49.023Z,28.15
2022-08-19T08:57:55.982Z,29.63
2022-08-19T09:00:31.223Z,29.52
2022-08-19T09:02:59.949Z,31.48
2022-08-19T09:05:58.017Z,30.90
2022-08-19T09:08:34.197Z,26.27
2022-08-19T09:11:05.646Z,31.73
2022-08-19T09:14:29.254Z,30.13
2022-08-19T09:16:59.287Z,37.67
2022-08-19T09:19:26.416Z,39.10
2022-08-19T09:21:56.419Z,42.92
2022-08-19T09:24:23.786Z,38.08
2022-08-19T09:26:58.002Z,39.53
2022-08-19T09:29:25.487Z,39.15
2022-08-19T09:31:52.407Z,40.38
2022-08-19T09:34:22.105Z,38.47
2022-08-19T09:36:54.004Z,36.20
2022-08-19T09:39:22.561Z,33.03
2022-08-19T09:41:50.904Z,32.10
2022-08-19T09:44:19.114Z,27.80
2022-08-19T09:46:48.186Z,25.80
2022-08-19T09:49:18.347Z,24.52
2022-08-19T09:51:50.882Z,31.90
2022-08-19T09:54:23.499Z,34.28
2022-08-19T09:56:52.153Z,33.28
2022-08-19T09:59:19.028Z,31.48
2022-08-19T10:01:46.272Z,29.20
2022-08-19T10:04:20.110Z,32.78
2022-08-19T10:06:53.506Z,28.63
2022-08-19T10:09:33.825Z,28.50
2022-08-19T10:12:03.555Z,24.85
2022-08-19T10:14:31.254Z,25.77
2022-08-19T10:16:59.251Z,22.80
2022-08-19T10:19:26.812Z,22.33
2022-08-19T10:21:58.634Z,18.98
2022-08-19T10:24:28.512Z,21.75
2022-08-19T10:26:57.082Z,18.95
2022-08-19T10:29:32.099Z,20.75
2022-08-19T10:32:09.706Z,20.83
2022-08-19T10:34:48.286Z,17.70
2022-08-19T10:37:23.625Z,17.45
2022-08-19T10:39:51.729Z,19.23
2022-08-19T10:42:20.023Z,17.50
2022-08-19T10:44:52.041Z,17.25
2022-08-19T10:47:25.940Z,17.70
2022-08-19T10:50:13.400Z,18.23
2022-08-19T10:52:49.716Z,17.05
2022-08-19T10:55:39.006Z,17.95
2022-08-19T10:58:14.686Z,16.88
2022-08-19T11:00:43.445Z,18.17
2022-08-19T11:03:10.755Z,18.65
2022-08-19T11:05:40.026Z,17.33
2022-08-19T11:08:23.061Z,24.17
2022-08-19T11:10:52.176Z,24.75
2022-08-19T11:13:18.965Z,21.77
2022-08-19T11:15:48.365Z,23.60
2022-08-19T11:18:15.323Z,22.05
2022-08-19T11:20:42.287Z,24.30
2022-08-19T11:23:09.189Z,27.85
2022-08-19T11:25:39.184Z,27.83
2022-08-19T11:28:06.056Z,25.40
2022-08-19T11:30:32.996Z,25.65
2022-08-19T11:33:01.806Z,27.65
2022-08-19T11:35:29.091Z,23.77
2022-08-19T11:37:57.134Z,24.08
2022-08-19T11:40:24.182Z,27.88
2022-08-19T11:42:57.201Z,24.60
2022-08-19T11:45:29.041Z,23.67
2022-08-19T11:47:56.929Z,23.55
2022-08-19T11:50:24.670Z,19.95
2022-08-19T11:52:55.237Z,23.88
2022-08-19T11:55:23.058Z,22.30
2022-08-19T11:57:50.066Z,21.85
2022-08-19T12:00:17.539Z,21.33
2022-08-19T12:02:44.512Z,21.00
2022-08-19T12:05:12.795Z,18.75
2022-08-19T12:07:44.620Z,21.15
2022-08-19T12:10:11.790Z,19.75
2022-08-19T12:12:43.583Z,18.88
2022-08-19T12:15:12.016Z,16.73
2022-08-19T12:17:39.333Z,16.98
2022-08-19T12:20:08.690Z,18.92
2022-08-19T12:22:36.251Z,17.13
2022-08-19T12:25:03.349Z,19.05
2022-08-19T12:27:32.374Z,18.73
2022-08-19T12:30:11.809Z,15.43
2022-08-19T12:35:07.364Z,16.00
2022-08-19T12:37:34.571Z,15.90
2022-08-19T12:40:01.964Z,13.88
2022-08-19T12:42:29.455Z,13.15
2022-08-19T12:44:56.418Z,13.45
2022-08-19T12:47:23.351Z,12.85
2022-08-19T12:49:53.867Z,13.15
2022-08-19T12:52:26.794Z,11.93
2022-08-19T12:54:55.415Z,12.30
2022-08-19T12:57:33.033Z,11.65
2022-08-19T13:00:29.651Z,11.40
2022-08-19T13:02:56.495Z,11.55
2022-08-19T13:05:26.115Z,11.45
2022-08-19T13:07:56.948Z,12.80
2022-08-19T13:10:28.650Z,11.52
2022-08-19T13:12:56.563Z,10.77
2022-08-19T13:15:24.562Z,14.98
2022-08-19T13:17:53.771Z,12.50
2022-08-19T13:22:58.537Z,11.10
2022-08-19T13:29:35.041Z,11.52
2022-08-19T13:32:20.221Z,11.48
2022-08-19T13:34:47.804Z,11.48
2022-08-19T13:37:14.609Z,11.10
2022-08-19T13:39:41.374Z,10.73
2022-08-19T13:42:10.194Z,11.45
2022-08-19T13:44:37.039Z,11.60
2022-08-19T13:47:09.189Z,10.23
2022-08-19T13:49:37.210Z,11.43
2022-08-19T13:52:06.106Z,10.40
2022-08-19T13:54:33.451Z,11.48
2022-08-19T13:57:00.253Z,10.52
2022-08-19T13:59:27.077Z,9.45
2022-08-19T14:02:00.499Z,10.10
2022-08-19T14:04:27.608Z,10.75
2022-08-19T14:06:54.518Z,9.90
2022-08-19T14:09:21.326Z,9.40
2022-08-19T14:11:48.168Z,9.70
2022-08-19T14:14:16.526Z,9.90
2022-08-19T14:16:43.782Z,8.75
2022-08-19T14:19:10.514Z,11.75
2022-08-19T14:21:41.428Z,10.52
2022-08-19T14:24:09.406Z,9.90
2022-08-19T14:26:36.271Z,10.15
2022-08-19T14:29:03.465Z,9.93
2022-08-19T14:31:30.943Z,8.98
2022-08-19T14:33:57.966Z,10.00
2022-08-19T14:36:24.967Z,9.73
2022-08-19T14:38:51.905Z,9.63
2022-08-19T14:41:23.570Z,9.27
2022-08-19T14:43:53.300Z,9.00
2022-08-19T14:46:26.174Z,8.32
2022-08-19T14:48:56.336Z,9.07
2022-08-19T14:51:24.844Z,9.80
2022-08-19T14:53:52.144Z,10.32
2022-08-19T14:56:22.568Z,9.05
2022-08-19T14:58:52.920Z,9.35
2022-08-19T15:03:49.646Z,9.48
2022-08-19T15:06:16.902Z,9.18
2022-08-19T15:08:45.789Z,8.88
2022-08-19T15:11:16.648Z,9.05
2022-08-19T15:13:45.647Z,9.05
2022-08-19T15:16:18.054Z,9.40
2022-08-19T15:18:46.835Z,9.75
2022-08-19T15:21:17.517Z,10.68
2022-08-19T15:23:55.641Z,9.68
2022-08-19T15:26:22.685Z,9.88
2022-08-19T15:28:49.687Z,9.43
2022-08-19T15:31:27.987Z,9.18
2022-08-19T15:33:58.736Z,10.05
2022-08-19T15:36:26.997Z,9.90
2022-08-19T15:38:53.953Z,9.93
2022-08-19T15:41:24.309Z,10.10
2022-08-19T15:43:56.834Z,9.40
2022-08-19T15:46:26.598Z,9.35
2022-08-19T15:48:57.525Z,10.63
2022-08-19T15:51:30.309Z,9.75
2022-08-19T15:53:58.359Z,10.52
2022-08-19T15:56:27.527Z,10.73
2022-08-19T15:59:13.358Z,9.10
2022-08-19T16:01:59.024Z,10.52
2022-08-19T16:04:44.400Z,10.77
2022-08-19T16:07:12.611Z,10.45
2022-08-19T16:09:39.612Z,12.00
2022-08-19T16:12:08.611Z,11.40
2022-08-19T16:14:38.071Z,11.70
2022-08-19T16:17:05.495Z,12.43
2022-08-19T16:19:33.360Z,11.43
2022-08-19T16:22:00.230Z,13.70
2022-08-19T16:24:28.771Z,11.77
2022-08-19T16:26:56.414Z,17.88
2022-08-19T16:29:34.257Z,11.85
2022-08-19T16:32:10.298Z,10.55
2022-08-19T16:34:39.121Z,10.18
2022-08-19T16:37:06.268Z,10.30
2022-08-19T16:39:33.335Z,11.73
2022-08-19T16:42:00.284Z,11.07
2022-08-19T16:44:29.671Z,12.35
2022-08-19T16:47:00.458Z,11.73
2022-08-19T16:49:54.436Z,11.13
2022-08-19T16:52:16.252Z,10.93
2022-08-19T16:54:43.938Z,10.70
2022-08-19T16:57:12.872Z,10.57
2022-08-19T16:59:48.238Z,11.80
2022-08-19T17:02:22.626Z,14.93
2022-08-19T17:04:57.713Z,14.93
2022-08-19T17:07:28.344Z,14.18
2022-08-19T17:09:56.434Z,13.65
2022-08-19T17:12:30.811Z,12.90
2022-08-19T17:15:02.888Z,14.32
2022-08-19T17:17:30.521Z,13.57
2022-08-19T17:20:02.883Z,13.82
2022-08-19T17:22:29.914Z,14.18
2022-08-19T17:24:58.250Z,14.23
2022-08-19T17:27:27.299Z,13.55
2022-08-19T17:29:59.894Z,15.63
2022-08-19T17:32:27.272Z,14.35
2022-08-19T17:34:54.416Z,15.18
2022-08-19T17:37:21.652Z,14.02
2022-08-19T17:39:48.659Z,14.13
2022-08-19T17:42:15.531Z,14.18
2022-08-19T17:44:42.430Z,14.90
2022-08-19T17:47:12.703Z,15.60
2022-08-19T17:49:39.598Z,14.30
2022-08-19T17:52:09.985Z,16.35
2022-08-19T17:54:37.231Z,14.45
2022-08-19T17:57:04.260Z,16.25
2022-08-19T17:59:31.052Z,15.40
2022-08-19T18:02:00.000Z,16.10
2022-08-19T18:04:26.983Z,15.75
2022-08-19T18:06:55.584Z,15.02
2022-08-19T18:09:41.918Z,14.55
2022-08-19T18:12:12.822Z,14.43
2022-08-19T18:14:40.631Z,14.57
2022-08-19T18:17:10.155Z,15.95
2022-08-19T18:19:43.308Z,15.07
2022-08-19T18:22:36.465Z,15.48
2022-08-19T18:25:10.575Z,15.63
2022-08-19T18:27:37.429Z,14.63
2022-08-19T18:30:06.501Z,14.80
2022-08-19T18:32:34.513Z,15.75
2022-08-19T18:35:04.551Z,15.23
2022-08-19T18:37:31.313Z,16.67
2022-08-19T18:40:16.746Z,14.73
2022-08-19T18:43:03.676Z,14.23
2022-08-19T18:45:49.952Z,13.02
2022-08-19T18:48:35.401Z,13.13
2022-08-19T18:51:02.410Z,14.32
2022-08-19T18:53:32.132Z,15.20
2022-08-19T18:55:59.850Z,14.50
2022-08-19T18:58:32.652Z,14.60
2022-08-19T19:01:11.425Z,14.30
2022-08-19T19:03:53.350Z,14.35
2022-08-19T19:06:28.441Z,15.43
2022-08-19T19:08:55.240Z,15.43
2022-08-19T19:11:28.668Z,15.60
2022-08-19T19:13:55.555Z,15.73
2022-08-19T19:16:24.715Z,16.58
2022-08-19T19:18:52.784Z,18.42
2022-08-19T19:21:20.969Z,19.25
2022-08-19T19:23:47.897Z,19.98
2022-08-19T19:26:14.943Z,20.05
2022-08-19T19:28:45.579Z,19.42
2022-08-19T19:33:42.954Z,20.60
2022-08-19T19:36:09.841Z,20.52
2022-08-19T19:38:36.972Z,21.05
2022-08-19T19:41:04.192Z,20.40
2022-08-19T19:43:34.941Z,19.63
2022-08-19T19:46:08.205Z,21.67
2022-08-19T19:48:35.616Z,19.83
2022-08-19T19:51:03.923Z,20.55
2022-08-19T19:53:30.738Z,17.67
2022-08-19T19:55:58.871Z,18.83
2022-08-19T19:58:28.553Z,18.25
2022-08-19T20:00:56.494Z,17.30
2022-08-19T20:03:23.705Z,18.30
2022-08-19T20:05:52.433Z,17.00
2022-08-19T20:08:40.592Z,16.40
2022-08-19T20:11:07.714Z,14.90
2022-08-19T20:13:35.640Z,17.70
2022-08-19T20:16:06.088Z,16.65
2022-08-19T20:18:33.171Z,16.08
2022-08-19T20:21:00.541Z,16.58
2022-08-19T20:23:27.456Z,16.42
2022-08-19T20:25:54.438Z,15.07
2022-08-19T20:28:22.850Z,16.25
2022-08-19T20:30:50.245Z,15.85
2022-08-19T20:33:17.695Z,16.83
2022-08-19T20:35:45.399Z,16.27
2022-08-19T20:38:12.567Z,16.52
2022-08-19T20:40:40.063Z,16.40
2022-08-19T20:43:14.465Z,14.77
2022-08-19T20:45:41.355Z,16.15
2022-08-19T20:48:10.506Z,14.48
2022-08-19T20:50:37.810Z,14.73
2022-08-19T20:53:13.921Z,14.55
2022-08-19T20:55:44.473Z,14.10
2022-08-19T20:58:13.394Z,14.10
2022-08-19T21:00:40.794Z,13.57
2022-08-19T21:03:07.685Z,12.57
2022-08-19T21:05:34.514Z,13.63
2022-08-19T21:08:01.349Z,12.65
2022-08-19T21:10:28.124Z,13.43
2022-08-19T21:12:55.481Z,13.98
2022-08-19T21:15:24.674Z,12.43
2022-08-19T21:17:51.950Z,12.50
2022-08-19T21:20:18.914Z,13.02
2022-08-19T21:22:45.784Z,12.52
2022-08-19T21:25:12.637Z,12.65
2022-08-19T21:27:39.449Z,13.55
2022-08-19T21:30:06.844Z,12.82
2022-08-19T21:32:33.674Z,12.00
2022-08-19T21:35:02.191Z,12.70
2022-08-19T21:37:29.552Z,12.65
2022-08-19T21:39:56.491Z,13.40
2022-08-19T21:42:24.332Z,13.48
2022-08-19T21:44:51.473Z,12.35
2022-08-19T21:47:18.310Z,14.85
2022-08-19T21:49:45.208Z,14.90
2022-08-19T21:52:13.340Z,14.13
2022-08-19T21:54:40.191Z,13.73
2022-08-19T21:57:10.790Z,13.02
2022-08-19T21:59:43.846Z,14.00
2022-08-19T22:02:20.513Z,13.63
2022-08-19T22:04:52.600Z,13.30
2022-08-19T22:07:22.346Z,13.13
2022-08-19T22:09:50.705Z,13.73
2022-08-19T22:12:39.403Z,13.55
2022-08-19T22:15:14.460Z,12.32
2022-08-19T22:17:42.761Z,13.38
2022-08-19T22:20:13.921Z,14.48
2022-08-19T22:22:57.033Z,13.63
2022-08-19T22:25:31.377Z,14.80
2022-08-19T22:28:01.701Z,15.70
2022-08-19T22:30:33.166Z,15.93
2022-08-19T22:33:03.689Z,17.13
2022-08-19T22:35:33.156Z,16.45
2022-08-19T22:38:01.400Z,16.38
2022-08-19T22:40:30.329Z,16.55
2022-08-19T22:43:03.395Z,17.23
2022-08-19T22:45:31.409Z,17.55
2022-08-19T22:47:58.665Z,18.63
2022-08-19T22:50:26.362Z,15.20
2022-08-19T22:52:58.325Z,12.88
2022-08-19T22:55:29.894Z,12.73
2022-08-19T22:57:57.236Z,13.07
2022-08-19T23:00:27.526Z,14.25
2022-08-19T23:02:57.043Z,15.93
2022-08-19T23:05:27.107Z,16.60
2022-08-19T23:07:54.479Z,16.50
2022-08-19T23:10:27.582Z,17.48
2022-08-19T23:12:57.657Z,16.90
2022-08-19T23:15:28.648Z,18.07
2022-08-19T23:17:58.360Z,19.40
2022-08-19T23:20:29.375Z,19.50
2022-08-19T23:22:57.007Z,21.38
2022-08-19T23:25:27.976Z,21.98
2022-08-19T23:28:13.681Z,20.95
2022-08-19T23:30:45.788Z,21.40
2022-08-19T23:33:21.335Z,24.85
2022-08-19T23:35:48.992Z,21.45
2022-08-19T23:38:16.083Z,25.23
2022-08-19T23:40:43.288Z,24.02
2022-08-19T23:43:10.264Z,24.48
2022-08-19T23:45:39.441Z,23.88
2022-08-19T23:48:10.342Z,22.23
2022-08-19T23:50:40.488Z,25.67
2022-08-19T23:53:09.701Z,25.83
2022-08-19T23:55:42.953Z,23.13
2022-08-19T23:58:10.817Z,23.48
